Terminal Aerodrome Forecast
Issued by NWS Pendleton, OR

Home | Current Version | Previous Version | Text Only | Print | Product List | Glossary On
Versions: 1 2 3 4 5 6 7 8 9 10 11 12 13 14 15 16
203
FTUS46 KPDT 221739
TAFPDT
TAF
KPDT 221739Z 2218/2318 27019G26KT P6SM FEW060 BKN080
     FM222200 27015G25KT P6SM SCT090
     FM230300 24011KT P6SM BKN150
     FM230600 21009KT P6SM BKN120
     FM231300 15005KT P6SM SCT120=

USA.gov is the U.S. government's official web portal to all federal, state and local government web resources and services.